Airfield :
LOGIN :

Register | Disclaimer

   EN    FR    IT 

 










Legend :    VFR   Marginal VFR   IFR   Intensive IFR   Very Intensive IFR
Visi :
Ceiling :
>= 8 km
>= 3000ft
5 to 8 km
1000 to 3000 ft
1500m to 5 km
500 to 1000 ft
800 to 1500m
200 to 500 ft
< 800m
< 200 ft
Symbols :   Thunderstorms  Fog  Heavy snow  Heavy precipitations  Wind > 20 kt
SIGMETs :     Misc.  Thunderstorms  Icing  Turbulence  Mountain Waves  Volcanic Ashes







- Airport Elevation : 459 ft
- IATA code : CER
- Download approach charts


LFRC - Cherbourg / Maupertus

CURRENT METAR :
  • 182300Z AUTO 27012KT 9999 OVC014 11/09 Q1022

EXPIRED METARs :
  • 182230Z AUTO 27014KT 9999 BKN019 OVC025 11/09 Q1022
  • 182200Z AUTO 27014KT 9999 BKN019 OVC025 11/09 Q1022
  • 182130Z AUTO 27013KT 9999 FEW015 OVC022 11/09 Q1022
  • 182100Z AUTO 27013KT 9999 BKN014 BKN020 OVC030 11/09 Q1023
  • 182030Z AUTO 27013KT 9999 BKN019 BKN025 OVC032 11/09 Q1023

TAF TAF LFRC
Valid from the 18 at 15:00 until the 19 at 00:00 UTC


181400Z 1815/1824 27010KT 9999 BKN030
BECMG 1816/1818 BKN015
TEMPO 1816/1819 5000 RA BKN010
TEMPO 1816/1824 27015G25KT 5000 RA
TEMPO 1819/1824 3000 RADZ BKN005
No reported NOTAMs for that airfield.



MET'MAP, your aeronautical weather chart ! - Copyright ORBIFLY December 2007 - Disclaimer

ORBIFLY MET'MAP TEAM :

Programming & Development : Alexandra Zaïnal
Concept & Development : Baudouin d'Aumeries
Co-Development & Prog : Marc-Olivier Méhu
Technical & hardware support : Manuel Goepfert

Contact : metmap@orbifly.com




SOURCES & CREDITS :

   NOAA